Time;durP1;ratioP1;P1;durP2;ratioP2;P2;SDS_P1;SDS_P2;PMS_P1;PMS_P2;Temp;Humidity;BMP_temperature;BMP_pressure;BME280_temperature;BME280_humidity;BME280_pressure;Samples;Min_cycle;Max_cycle;Signal;HPM_P1;HPM_P2
2024/02/29 00:01:15;;;;;;;34.08;22.27;;;6.20;99.90;;;;;;7368495;19;20025;-72
2024/02/29 00:03:45;;;;;;;33.83;22.60;;;6.20;99.90;;;;;;7366467;19;20031;-70
2024/02/29 00:06:13;;;;;;;33.70;22.30;;;6.10;99.90;;;;;;7368539;19;20880;-71
2024/02/29 00:08:39;;;;;;;34.90;22.92;;;6.10;99.90;;;;;;7368559;19;20097;-71
2024/02/29 00:11:05;;;;;;;33.47;22.98;;;6.10;99.90;;;;;;7367171;19;20014;-70
2024/02/29 00:13:32;;;;;;;29.67;22.20;;;6.00;99.90;;;;;;7370884;19;20037;-72
2024/02/29 00:16:02;;;;;;;32.38;22.40;;;6.00;99.90;;;;;;7363935;19;20025;-69
2024/02/29 00:18:28;;;;;;;35.58;21.45;;;5.90;99.90;;;;;;7368000;19;20463;-70
2024/02/29 00:20:55;;;;;;;34.30;21.40;;;5.90;99.90;;;;;;7370367;19;20029;-69
2024/02/29 00:23:22;;;;;;;31.60;22.02;;;5.90;99.90;;;;;;7367163;19;20018;-69
2024/02/29 00:25:49;;;;;;;35.10;22.63;;;5.90;99.90;;;;;;7366258;19;20025;-70
2024/02/29 00:28:15;;;;;;;31.75;22.00;;;5.90;99.90;;;;;;7371010;19;20018;-69
2024/02/29 00:30:42;;;;;;;30.95;21.63;;;5.80;99.90;;;;;;7364976;19;20022;-71
2024/02/29 00:33:09;;;;;;;34.70;21.52;;;5.80;99.90;;;;;;7367163;19;20015;-69
2024/02/29 00:35:39;;;;;;;32.45;23.30;;;5.80;99.90;;;;;;7365296;19;20036;-68
2024/02/29 00:38:05;;;;;;;32.72;21.77;;;5.80;99.90;;;;;;7366022;19;20015;-70
2024/02/29 00:40:36;;;;;;;32.38;21.92;;;5.80;99.90;;;;;;7365930;19;20026;-70
2024/02/29 00:43:05;;;;;;;31.20;21.85;;;5.70;99.90;;;;;;7367684;19;20022;-70
2024/02/29 00:45:33;;;;;;;33.45;22.80;;;5.80;99.90;;;;;;7367443;19;20025;-70
2024/02/29 00:48:01;;;;;;;33.22;22.50;;;5.80;99.90;;;;;;7367923;19;20835;-70
2024/02/29 00:50:28;;;;;;;31.48;20.23;;;5.60;99.90;;;;;;7365923;19;20025;-71
2024/02/29 00:52:55;;;;;;;32.60;21.88;;;5.70;99.90;;;;;;7368439;19;20014;-69
2024/02/29 00:55:22;;;;;;;32.20;22.08;;;5.70;99.90;;;;;;7366408;19;20010;-69
2024/02/29 00:57:51;;;;;;;33.63;22.95;;;5.70;99.90;;;;;;7370953;19;20044;-71
2024/02/29 01:00:19;;;;;;;27.85;18.95;;;5.70;99.90;;;;;;7364673;19;20019;-71
2024/02/29 01:02:46;;;;;;;31.65;22.25;;;5.70;99.90;;;;;;7372667;19;20022;-70
2024/02/29 01:05:15;;;;;;;29.13;21.38;;;5.70;99.90;;;;;;7366350;19;20022;-69
2024/02/29 01:07:42;;;;;;;31.83;22.65;;;5.70;99.90;;;;;;7366451;19;20059;-70
2024/02/29 01:10:12;;;;;;;29.08;20.05;;;5.70;99.90;;;;;;7377908;19;20014;-71
2024/02/29 01:12:41;;;;;;;30.13;21.05;;;5.60;99.90;;;;;;7372326;19;20022;-70
2024/02/29 01:15:10;;;;;;;33.15;21.20;;;5.70;99.90;;;;;;7372419;19;20066;-70
2024/02/29 01:17:38;;;;;;;28.88;21.10;;;5.70;99.90;;;;;;7371651;19;20022;-71
2024/02/29 01:20:05;;;;;;;28.67;20.88;;;5.60;99.90;;;;;;7371971;19;20420;-71
2024/02/29 01:22:33;;;;;;;29.50;21.08;;;5.60;99.90;;;;;;7373002;19;20022;-70
2024/02/29 01:25:01;;;;;;;31.70;22.45;;;5.70;99.90;;;;;;7373557;19;20042;-71
2024/02/29 01:27:28;;;;;;;27.52;20.65;;;5.70;99.90;;;;;;7371404;19;20792;-71
2024/02/29 01:29:56;;;;;;;31.05;20.48;;;5.60;99.90;;;;;;7374545;19;20015;-71
2024/02/29 01:32:26;;;;;;;30.88;20.30;;;5.60;99.90;;;;;;7369400;19;20010;-71
2024/02/29 01:34:53;;;;;;;29.75;20.40;;;5.70;99.90;;;;;;7374379;19;20025;-71
2024/02/29 01:37:21;;;;;;;33.85;20.85;;;5.70;99.90;;;;;;7370840;19;20018;-70
2024/02/29 01:39:49;;;;;;;30.98;21.25;;;5.70;99.90;;;;;;7368875;19;20127;-71
2024/02/29 01:42:16;;;;;;;25.10;19.60;;;5.70;99.90;;;;;;7370193;19;20033;-69
2024/02/29 01:44:55;;;;;;;29.75;18.73;;;5.80;99.90;;;;;;7375584;19;20011;-71
2024/02/29 01:47:26;;;;;;;31.15;21.23;;;5.80;99.90;;;;;;7371694;19;20007;-71
2024/02/29 01:49:57;;;;;;;27.88;20.75;;;5.90;99.90;;;;;;7368140;19;20038;-71
2024/02/29 01:52:28;;;;;;;26.67;19.77;;;5.90;99.90;;;;;;7370807;19;20023;-71
2024/02/29 01:54:55;;;;;;;25.02;18.77;;;6.00;99.90;;;;;;7374167;19;20015;-71
2024/02/29 01:57:24;;;;;;;27.60;20.08;;;6.00;99.90;;;;;;7370162;19;20010;-70
2024/02/29 01:59:52;;;;;;;30.33;20.60;;;6.00;99.90;;;;;;7372442;19;20006;-72
2024/02/29 02:02:20;;;;;;;26.67;18.85;;;6.10;99.90;;;;;;7375319;19;20528;-72
2024/02/29 02:04:48;;;;;;;30.70;20.58;;;6.10;99.90;;;;;;7366814;19;20027;-71
2024/02/29 02:07:19;;;;;;;25.33;17.90;;;6.10;99.90;;;;;;7366490;19;20625;-70
2024/02/29 02:09:46;;;;;;;24.92;18.17;;;6.10;99.90;;;;;;7362378;19;20082;-70
2024/02/29 02:12:13;;;;;;;24.88;18.60;;;6.10;99.90;;;;;;7369427;19;20045;-70
2024/02/29 02:14:41;;;;;;;29.85;19.52;;;6.10;99.90;;;;;;7373818;19;20018;-69
2024/02/29 02:17:09;;;;;;;26.92;18.52;;;6.10;99.90;;;;;;7366906;19;20026;-71
2024/02/29 02:19:41;;;;;;;27.30;19.25;;;6.10;99.90;;;;;;7363266;19;20022;-69
2024/02/29 02:22:09;;;;;;;25.98;18.17;;;6.20;99.90;;;;;;7365524;19;21156;-69
2024/02/29 02:24:37;;;;;;;26.45;16.35;;;6.20;99.90;;;;;;7372805;19;20033;-70
2024/02/29 02:27:04;;;;;;;25.13;18.42;;;6.20;99.90;;;;;;7365480;19;20011;-70
2024/02/29 02:29:32;;;;;;;24.77;17.85;;;6.20;99.90;;;;;;7366801;19;20018;-69
2024/02/29 02:31:59;;;;;;;22.63;17.15;;;6.20;99.90;;;;;;7367689;19;20049;-71
2024/02/29 02:34:26;;;;;;;26.67;17.88;;;6.20;99.90;;;;;;7372404;19;20018;-72
2024/02/29 02:36:53;;;;;;;23.67;16.73;;;6.20;99.90;;;;;;7364539;19;20010;-72
2024/02/29 02:39:21;;;;;;;21.08;15.27;;;6.30;99.90;;;;;;7373156;19;20017;-72
2024/02/29 02:41:48;;;;;;;24.23;17.25;;;6.30;99.90;;;;;;7362205;19;20674;-70
2024/02/29 02:44:16;;;;;;;25.02;16.48;;;6.30;99.90;;;;;;7367046;19;20015;-73
2024/02/29 02:46:43;;;;;;;25.80;16.13;;;6.30;99.90;;;;;;7367834;19;20019;-72
2024/02/29 02:49:10;;;;;;;19.02;14.07;;;6.30;99.90;;;;;;7369126;19;20044;-72
2024/02/29 02:51:37;;;;;;;23.08;15.38;;;6.30;99.90;;;;;;7365218;19;20097;-72
2024/02/29 02:54:05;;;;;;;20.65;15.77;;;6.30;99.90;;;;;;7366853;19;21110;-71
2024/02/29 02:56:32;;;;;;;20.13;14.18;;;6.30;99.90;;;;;;7367243;19;20014;-72
2024/02/29 02:58:59;;;;;;;22.08;15.55;;;6.40;99.90;;;;;;7366437;19;20011;-70
2024/02/29 03:01:26;;;;;;;21.02;14.73;;;6.30;99.90;;;;;;7372788;19;20025;-70
2024/02/29 03:03:54;;;;;;;20.23;14.80;;;6.30;99.90;;;;;;7370211;19;20018;-72
2024/02/29 03:06:24;;;;;;;22.23;14.45;;;6.40;99.90;;;;;;7375237;19;20076;-71
2024/02/29 03:08:52;;;;;;;21.90;14.38;;;6.40;99.90;;;;;;7370054;19;20029;-70
2024/02/29 03:11:18;;;;;;;18.10;13.95;;;6.40;99.90;;;;;;7367783;19;20025;-70
2024/02/29 03:13:45;;;;;;;20.15;14.65;;;6.30;99.90;;;;;;7364111;19;20435;-69
2024/02/29 03:16:11;;;;;;;19.98;14.18;;;6.40;99.90;;;;;;7366454;19;20017;-69
2024/02/29 03:18:37;;;;;;;19.38;14.15;;;6.40;99.90;;;;;;7368047;19;20029;-72
2024/02/29 03:21:04;;;;;;;18.10;13.52;;;6.40;99.90;;;;;;7372528;19;20042;-70
2024/02/29 03:23:31;;;;;;;19.67;14.70;;;6.40;99.90;;;;;;7360918;19;20021;-70
2024/02/29 03:25:58;;;;;;;20.02;14.10;;;6.40;99.90;;;;;;7373601;19;20081;-72
2024/02/29 03:28:24;;;;;;;17.90;14.45;;;6.40;99.90;;;;;;7365301;19;20110;-70
2024/02/29 03:30:51;;;;;;;21.05;14.32;;;6.40;99.90;;;;;;7361691;19;20026;-71
2024/02/29 03:33:17;;;;;;;18.13;13.95;;;6.40;99.90;;;;;;7368268;19;20023;-71
2024/02/29 03:35:44;;;;;;;19.30;14.48;;;6.40;99.90;;;;;;7367718;19;20014;-72
2024/02/29 03:38:11;;;;;;;16.92;13.85;;;6.40;99.90;;;;;;7371761;19;20134;-69
2024/02/29 03:40:37;;;;;;;18.98;14.38;;;6.40;99.90;;;;;;7368002;19;20102;-72
2024/02/29 03:43:04;;;;;;;20.02;14.63;;;6.40;99.90;;;;;;7364036;19;20057;-69
2024/02/29 03:45:31;;;;;;;20.52;14.57;;;6.40;99.90;;;;;;7363729;19;20015;-70
2024/02/29 03:47:57;;;;;;;21.25;15.48;;;6.50;99.90;;;;;;7366087;19;20015;-72
2024/02/29 03:50:24;;;;;;;16.60;13.93;;;6.40;99.90;;;;;;7369706;19;20019;-72
2024/02/29 03:52:51;;;;;;;20.10;15.25;;;6.40;99.90;;;;;;7369209;19;20026;-69
2024/02/29 03:55:19;;;;;;;20.75;14.85;;;6.40;99.90;;;;;;7371553;19;20694;-71
2024/02/29 03:57:45;;;;;;;18.45;14.18;;;6.50;99.90;;;;;;7370684;19;20035;-72
2024/02/29 04:00:14;;;;;;;21.83;14.70;;;6.40;99.90;;;;;;7369352;19;20503;-72
2024/02/29 04:02:41;;;;;;;20.02;15.35;;;6.40;99.90;;;;;;7369434;19;20018;-71
2024/02/29 04:05:08;;;;;;;19.35;14.00;;;6.40;99.90;;;;;;7370158;19;20029;-72
2024/02/29 04:07:41;;;;;;;20.02;13.60;;;6.40;99.90;;;;;;7373355;19;20038;-72
2024/02/29 04:10:11;;;;;;;19.38;13.35;;;6.40;99.90;;;;;;7366687;19;20414;-70
2024/02/29 04:12:38;;;;;;;20.52;13.52;;;6.40;99.90;;;;;;7367064;19;20037;-70
2024/02/29 04:15:05;;;;;;;20.85;14.23;;;6.40;99.90;;;;;;7369700;19;20011;-72
2024/02/29 04:17:32;;;;;;;18.73;13.90;;;6.40;99.90;;;;;;7363845;19;20041;-72
2024/02/29 04:19:58;;;;;;;19.27;14.20;;;6.40;99.90;;;;;;7372636;19;20018;-70
2024/02/29 04:22:25;;;;;;;17.38;11.73;;;6.30;99.90;;;;;;7369684;19;20025;-72
2024/02/29 04:24:51;;;;;;;20.15;12.95;;;6.30;99.90;;;;;;7367822;19;20011;-70
2024/02/29 04:27:18;;;;;;;18.00;14.13;;;6.30;99.90;;;;;;7371088;19;20098;-70
2024/02/29 04:29:46;;;;;;;21.15;14.57;;;6.30;99.90;;;;;;7366808;19;20496;-72
2024/02/29 04:32:13;;;;;;;18.25;13.27;;;6.20;99.90;;;;;;7366410;19;20019;-70
2024/02/29 04:34:39;;;;;;;17.42;12.73;;;6.20;99.90;;;;;;7367670;19;20835;-72
2024/02/29 04:37:06;;;;;;;18.08;13.35;;;6.10;99.90;;;;;;7370339;19;20074;-73
2024/02/29 04:39:32;;;;;;;18.63;12.60;;;6.10;99.90;;;;;;7368122;19;20029;-73
2024/02/29 04:41:58;;;;;;;19.35;13.20;;;6.10;99.90;;;;;;7366534;19;20108;-70
2024/02/29 04:44:25;;;;;;;18.77;13.95;;;6.10;99.90;;;;;;7371233;19;20023;-73
2024/02/29 04:46:53;;;;;;;23.33;13.68;;;6.10;99.90;;;;;;7369485;19;20031;-70
2024/02/29 04:49:21;;;;;;;18.38;12.25;;;6.10;99.90;;;;;;7376309;19;20037;-70
2024/02/29 04:51:53;;;;;;;19.50;13.60;;;6.10;99.90;;;;;;7376096;19;20014;-72
2024/02/29 04:54:22;;;;;;;18.98;12.77;;;6.10;99.90;;;;;;7374772;19;20045;-71
2024/02/29 04:56:48;;;;;;;17.77;13.52;;;6.10;99.90;;;;;;7369339;19;20018;-70
2024/02/29 04:59:18;;;;;;;18.50;12.57;;;6.10;99.90;;;;;;7376422;19;20076;-70
2024/02/29 05:01:45;;;;;;;18.80;13.30;;;6.10;99.90;;;;;;7371719;19;20046;-70
2024/02/29 05:04:15;;;;;;;16.48;11.68;;;6.10;99.90;;;;;;7373083;19;20022;-71
2024/02/29 05:06:42;;;;;;;16.92;11.93;;;6.10;99.90;;;;;;7373276;19;20018;-70
2024/02/29 05:09:09;;;;;;;15.55;11.20;;;6.20;99.90;;;;;;7377390;19;20026;-73
2024/02/29 05:11:37;;;;;;;15.13;10.98;;;6.20;99.90;;;;;;7375270;19;20483;-73
2024/02/29 05:14:07;;;;;;;17.92;12.10;;;6.20;99.90;;;;;;7378886;19;20018;-72
2024/02/29 05:16:35;;;;;;;17.27;11.23;;;6.30;99.90;;;;;;7367035;19;20788;-72
2024/02/29 05:19:02;;;;;;;15.82;10.82;;;6.30;99.90;;;;;;7377139;19;20135;-70
2024/02/29 05:21:29;;;;;;;16.42;11.43;;;6.30;99.90;;;;;;7374306;19;20026;-70
2024/02/29 05:23:57;;;;;;;13.32;9.88;;;6.30;99.90;;;;;;7373385;19;20490;-71
2024/02/29 05:26:30;;;;;;;14.02;9.90;;;6.30;99.90;;;;;;7372587;19;20015;-72
2024/02/29 05:28:57;;;;;;;15.13;9.75;;;6.30;99.90;;;;;;7373418;19;20010;-72
2024/02/29 05:31:24;;;;;;;15.68;10.40;;;6.30;99.90;;;;;;7365605;19;20753;-71
2024/02/29 05:33:51;;;;;;;13.70;9.82;;;6.30;99.90;;;;;;7373097;19;20022;-70
2024/02/29 05:36:18;;;;;;;13.82;10.50;;;6.30;99.90;;;;;;7366018;19;21129;-71
2024/02/29 05:38:50;;;;;;;15.90;10.05;;;6.30;99.90;;;;;;7375115;19;20014;-70
2024/02/29 05:41:17;;;;;;;16.50;10.32;;;6.30;99.90;;;;;;7370163;19;20812;-69
2024/02/29 05:43:45;;;;;;;15.10;10.07;;;6.20;99.90;;;;;;7372812;19;20021;-72
2024/02/29 05:46:13;;;;;;;14.02;11.10;;;6.20;99.90;;;;;;7371432;19;20026;-70
2024/02/29 05:48:39;;;;;;;16.42;10.65;;;6.20;99.90;;;;;;7371010;19;20341;-71
2024/02/29 05:51:08;;;;;;;15.02;11.10;;;6.20;99.90;;;;;;7372559;19;20030;-72
2024/02/29 05:53:37;;;;;;;15.23;11.82;;;6.20;99.90;;;;;;7371792;19;20015;-72
2024/02/29 05:56:04;;;;;;;14.15;9.95;;;6.20;99.90;;;;;;7367139;19;20023;-73
2024/02/29 05:58:31;;;;;;;16.33;11.50;;;6.10;99.90;;;;;;7373902;19;20747;-69
2024/02/29 06:00:58;;;;;;;15.32;10.35;;;6.20;99.90;;;;;;7368223;19;20015;-70
2024/02/29 06:03:25;;;;;;;13.35;9.98;;;6.10;99.90;;;;;;7373946;19;20040;-72
2024/02/29 06:05:53;;;;;;;17.17;11.75;;;6.20;99.90;;;;;;7376908;19;20029;-72
2024/02/29 06:08:21;;;;;;;16.08;10.93;;;6.20;99.90;;;;;;7373919;19;20019;-73
2024/02/29 06:10:47;;;;;;;17.05;12.35;;;6.20;99.90;;;;;;7362930;19;20026;-70
2024/02/29 06:13:14;;;;;;;16.58;11.40;;;6.20;99.90;;;;;;7375498;19;20084;-71
2024/02/29 06:15:41;;;;;;;15.88;10.45;;;6.20;99.90;;;;;;7372679;19;20286;-71
2024/02/29 06:18:07;;;;;;;18.30;12.02;;;6.20;99.90;;;;;;7370445;19;20019;-68
2024/02/29 06:20:34;;;;;;;18.10;10.95;;;6.20;99.90;;;;;;7364863;19;20018;-68
2024/02/29 06:23:00;;;;;;;16.60;12.82;;;6.20;99.90;;;;;;7371680;19;20110;-71
2024/02/29 06:25:27;;;;;;;19.63;11.95;;;6.20;99.90;;;;;;7371719;19;20022;-66
2024/02/29 06:27:53;;;;;;;18.77;12.18;;;6.20;99.90;;;;;;7373150;19;20022;-72
2024/02/29 06:30:24;;;;;;;19.23;12.82;;;6.20;99.90;;;;;;7370091;19;20025;-72
2024/02/29 06:32:52;;;;;;;17.67;12.10;;;6.20;99.90;;;;;;7371219;19;20026;-72
2024/02/29 06:35:18;;;;;;;17.40;12.15;;;6.20;99.90;;;;;;7372036;19;20023;-72
2024/02/29 06:37:45;;;;;;;20.80;12.90;;;6.20;99.90;;;;;;7367027;19;20031;-69
2024/02/29 06:40:13;;;;;;;18.73;11.98;;;6.20;99.90;;;;;;7368015;19;20029;-69
2024/02/29 06:42:40;;;;;;;20.45;10.55;;;6.20;99.90;;;;;;7371592;19;20426;-69
2024/02/29 06:45:09;;;;;;;17.38;12.40;;;6.20;99.90;;;;;;7363621;19;20015;-69
2024/02/29 06:47:40;;;;;;;18.58;13.18;;;6.20;99.90;;;;;;7368616;19;20187;-69
2024/02/29 06:50:08;;;;;;;20.25;13.10;;;6.20;99.90;;;;;;7371479;19;20101;-69
2024/02/29 06:52:37;;;;;;;20.05;12.48;;;6.20;99.90;;;;;;7371372;19;20443;-73
2024/02/29 06:55:09;;;;;;;20.98;13.77;;;6.20;99.90;;;;;;7370356;19;20014;-72
2024/02/29 06:57:38;;;;;;;21.00;13.07;;;6.20;99.90;;;;;;7366188;19;20015;-71
2024/02/29 07:00:06;;;;;;;20.52;13.05;;;6.20;99.90;;;;;;7371535;19;20027;-72
2024/02/29 07:02:37;;;;;;;19.40;13.07;;;6.20;99.90;;;;;;7365991;19;20040;-72
2024/02/29 07:05:08;;;;;;;18.55;12.98;;;6.10;99.90;;;;;;7372410;19;20092;-72
2024/02/29 07:07:36;;;;;;;17.80;12.45;;;6.20;99.90;;;;;;7369683;19;20011;-72
2024/02/29 07:10:05;;;;;;;19.65;13.05;;;6.20;99.90;;;;;;7368740;19;20022;-72
2024/02/29 07:12:32;;;;;;;18.13;12.57;;;6.20;99.90;;;;;;7372224;19;20251;-69
2024/02/29 07:14:59;;;;;;;20.75;13.57;;;6.20;99.90;;;;;;7370224;19;20026;-73
2024/02/29 07:17:28;;;;;;;21.02;13.88;;;6.20;99.90;;;;;;7368557;19;20054;-69
2024/02/29 07:19:56;;;;;;;17.92;13.30;;;6.20;99.90;;;;;;7371855;19;20018;-70
2024/02/29 07:22:23;;;;;;;22.17;13.90;;;6.20;99.90;;;;;;7371120;19;20098;-69
2024/02/29 07:24:51;;;;;;;18.98;14.30;;;6.20;99.90;;;;;;7367853;19;20010;-69
2024/02/29 07:27:19;;;;;;;21.77;13.43;;;6.20;99.90;;;;;;7365971;19;20019;-72
2024/02/29 07:29:46;;;;;;;20.63;14.13;;;6.20;99.90;;;;;;7373707;19;20018;-71
2024/02/29 07:32:14;;;;;;;25.88;13.95;;;6.20;99.90;;;;;;7369073;19;20831;-68
2024/02/29 07:34:41;;;;;;;20.85;14.88;;;6.30;99.90;;;;;;7373604;19;20047;-68
2024/02/29 07:37:08;;;;;;;24.38;14.98;;;6.30;99.90;;;;;;7362864;19;20021;-72
2024/02/29 07:39:35;;;;;;;21.60;13.85;;;6.20;99.90;;;;;;7372545;19;20031;-69
2024/02/29 07:42:04;;;;;;;19.70;14.55;;;6.30;99.90;;;;;;7364644;19;21163;-68
2024/02/29 07:44:32;;;;;;;24.77;14.25;;;6.20;99.90;;;;;;7371696;19;20019;-68
2024/02/29 07:46:59;;;;;;;24.77;16.13;;;6.30;99.90;;;;;;7366104;19;20022;-68
2024/02/29 07:49:27;;;;;;;23.83;15.38;;;6.30;99.90;;;;;;7368625;19;20114;-68
2024/02/29 07:51:55;;;;;;;20.33;14.80;;;6.30;99.90;;;;;;7371480;19;20493;-73
2024/02/29 07:54:24;;;;;;;23.95;16.95;;;6.30;99.90;;;;;;7370581;19;20013;-73
2024/02/29 07:56:51;;;;;;;22.73;15.77;;;6.20;99.90;;;;;;7366857;19;20466;-73
2024/02/29 07:59:20;;;;;;;22.17;14.40;;;6.30;99.90;;;;;;7370381;19;20065;-68
2024/02/29 08:01:48;;;;;;;23.40;16.35;;;6.20;99.90;;;;;;7361793;19;20021;-68
2024/02/29 08:04:15;;;;;;;22.23;16.42;;;6.30;99.90;;;;;;7370371;19;20664;-73
2024/02/29 08:06:42;;;;;;;24.02;15.60;;;6.30;99.90;;;;;;7357524;19;20018;-73
2024/02/29 08:09:09;;;;;;;23.75;15.45;;;6.30;99.90;;;;;;7365980;19;20025;-72
2024/02/29 08:11:37;;;;;;;26.08;17.50;;;6.30;99.90;;;;;;7367004;19;20106;-67
2024/02/29 08:14:04;;;;;;;25.85;16.80;;;6.40;99.90;;;;;;7367391;19;20053;-67
2024/02/29 08:16:32;;;;;;;24.40;16.85;;;6.40;99.90;;;;;;7365471;19;20052;-66
2024/02/29 08:19:00;;;;;;;24.08;16.40;;;6.40;99.90;;;;;;7378101;19;20014;-72
2024/02/29 08:21:32;;;;;;;27.40;17.52;;;6.40;99.90;;;;;;7383309;19;20014;-72
2024/02/29 08:24:00;;;;;;;25.15;15.95;;;6.50;99.90;;;;;;7384279;19;20018;-72
2024/02/29 08:26:30;;;;;;;25.52;17.00;;;6.50;99.90;;;;;;7383957;19;20022;-71
2024/02/29 08:28:56;;;;;;;27.23;17.85;;;6.50;99.90;;;;;;7383469;19;20781;-71
2024/02/29 08:31:23;;;;;;;23.95;16.52;;;6.60;99.90;;;;;;7384064;19;20852;-72
2024/02/29 08:33:51;;;;;;;25.17;16.60;;;6.60;99.90;;;;;;7382878;19;20503;-72
2024/02/29 08:36:17;;;;;;;24.85;16.40;;;6.60;99.90;;;;;;7378847;19;20037;-72
2024/02/29 08:38:47;;;;;;;25.65;16.25;;;6.60;99.90;;;;;;7378747;19;20488;-67
2024/02/29 08:41:14;;;;;;;27.23;17.50;;;6.60;99.90;;;;;;7371220;19;20469;-67
2024/02/29 08:43:42;;;;;;;26.63;15.93;;;6.70;99.90;;;;;;7370209;19;20025;-67
2024/02/29 08:46:09;;;;;;;26.98;17.10;;;6.60;99.90;;;;;;7369289;19;20495;-68
2024/02/29 08:48:36;;;;;;;24.75;15.93;;;6.70;99.90;;;;;;7376606;19;20018;-69
2024/02/29 08:51:03;;;;;;;23.92;15.77;;;6.70;99.90;;;;;;7375434;19;20018;-68
2024/02/29 08:53:31;;;;;;;25.58;16.48;;;6.80;99.90;;;;;;7371962;19;20449;-69
2024/02/29 08:55:58;;;;;;;23.77;14.48;;;6.80;99.90;;;;;;7381411;19;20022;-72
2024/02/29 08:58:24;;;;;;;24.08;15.15;;;6.80;99.90;;;;;;7378762;19;20915;-71
2024/02/29 09:00:52;;;;;;;19.20;12.32;;;6.80;99.90;;;;;;7383673;19;20019;-72
2024/02/29 09:03:20;;;;;;;22.45;13.75;;;6.90;99.90;;;;;;7377867;19;20031;-68
2024/02/29 09:05:47;;;;;;;19.60;13.80;;;6.90;99.90;;;;;;7375987;19;20042;-73
2024/02/29 09:08:14;;;;;;;18.67;12.52;;;6.90;99.90;;;;;;7374045;19;20010;-67
2024/02/29 09:10:41;;;;;;;21.25;13.45;;;7.00;99.90;;;;;;7374267;19;20690;-70
2024/02/29 09:13:09;;;;;;;20.85;13.00;;;7.00;99.90;;;;;;7378825;19;20035;-71
2024/02/29 09:15:37;;;;;;;19.75;12.90;;;7.00;99.90;;;;;;7374183;19;21633;-71
2024/02/29 09:18:08;;;;;;;16.40;11.35;;;7.00;99.90;;;;;;7372546;19;20364;-68
2024/02/29 09:20:37;;;;;;;18.10;13.20;;;7.00;99.90;;;;;;7371141;19;20022;-68
2024/02/29 09:23:08;;;;;;;20.23;12.50;;;7.00;99.90;;;;;;7368781;19;20026;-68
2024/02/29 09:25:35;;;;;;;19.40;13.60;;;7.10;99.90;;;;;;7369955;19;20593;-72
2024/02/29 09:28:02;;;;;;;18.02;12.50;;;7.10;99.90;;;;;;7377062;19;20014;-71
2024/02/29 09:30:30;;;;;;;18.00;12.98;;;7.10;99.90;;;;;;7367757;19;20011;-69
2024/02/29 09:32:58;;;;;;;19.20;12.55;;;7.10;99.90;;;;;;7376087;19;20026;-69
2024/02/29 09:35:26;;;;;;;18.77;12.48;;;7.10;99.90;;;;;;7375776;19;20022;-72
2024/02/29 09:37:55;;;;;;;19.17;12.63;;;7.20;99.90;;;;;;7373584;19;20025;-72
2024/02/29 09:40:21;;;;;;;19.63;12.15;;;7.20;99.90;;;;;;7373359;19;20806;-72
2024/02/29 09:42:48;;;;;;;17.88;12.82;;;7.30;99.90;;;;;;7373263;19;20030;-72
2024/02/29 09:45:23;;;;;;;17.08;11.85;;;7.30;99.90;;;;;;7377589;19;20014;-71
2024/02/29 09:47:50;;;;;;;17.88;12.73;;;7.20;99.90;;;;;;7374092;19;20888;-72
2024/02/29 09:50:17;;;;;;;21.60;13.10;;;7.30;99.90;;;;;;7379065;19;20026;-72
2024/02/29 09:52:45;;;;;;;19.08;13.77;;;7.30;99.90;;;;;;7372355;19;20487;-69
2024/02/29 09:55:18;;;;;;;21.75;14.00;;;7.30;99.90;;;;;;7370960;19;20605;-68
2024/02/29 09:57:46;;;;;;;17.80;13.13;;;7.30;99.90;;;;;;7368885;19;20735;-72
2024/02/29 10:00:14;;;;;;;24.65;14.95;;;7.30;99.90;;;;;;7370650;19;20023;-67
2024/02/29 10:02:44;;;;;;;23.48;15.20;;;7.30;99.90;;;;;;7368480;19;20114;-72
2024/02/29 10:05:10;;;;;;;16.45;13.13;;;7.30;99.90;;;;;;7371291;19;20021;-72
2024/02/29 10:07:45;;;;;;;24.45;14.82;;;7.30;99.90;;;;;;7368645;19;20867;-72
2024/02/29 10:10:14;;;;;;;26.23;16.17;;;7.20;99.90;;;;;;7371963;19;20023;-69
2024/02/29 10:12:43;;;;;;;23.05;15.40;;;7.20;99.90;;;;;;7366313;19;20760;-73
2024/02/29 10:15:10;;;;;;;22.85;15.85;;;7.20;99.90;;;;;;7367098;19;20812;-73
2024/02/29 10:17:38;;;;;;;21.92;14.27;;;7.30;99.90;;;;;;7372203;19;20064;-73
2024/02/29 10:20:12;;;;;;;22.10;15.65;;;7.30;99.90;;;;;;7370135;19;20508;-73
2024/02/29 10:22:42;;;;;;;21.80;15.68;;;7.30;99.90;;;;;;7369173;19;20927;-68
2024/02/29 10:25:13;;;;;;;24.10;16.80;;;7.30;99.90;;;;;;7367164;19;20040;-67
2024/02/29 10:27:40;;;;;;;25.75;16.75;;;7.40;99.90;;;;;;7364454;19;20599;-68
2024/02/29 10:30:12;;;;;;;25.13;16.20;;;7.40;99.90;;;;;;7370658;19;20109;-68
2024/02/29 10:32:43;;;;;;;21.42;16.08;;;7.40;99.90;;;;;;7372197;19;20097;-67
2024/02/29 10:35:22;;;;;;;21.55;16.45;;;7.50;99.90;;;;;;7371958;19;20029;-72
2024/02/29 10:37:51;;;;;;;22.83;14.88;;;7.50;99.90;;;;;;7371045;19;20641;-67
2024/02/29 10:40:18;;;;;;;20.88;15.60;;;7.50;99.90;;;;;;7369988;19;20808;-67
2024/02/29 10:42:54;;;;;;;24.38;14.48;;;7.50;99.90;;;;;;7371280;19;20018;-68
2024/02/29 10:45:25;;;;;;;20.63;15.93;;;7.50;99.90;;;;;;7372504;19;20081;-72
2024/02/29 10:48:00;;;;;;;22.33;14.77;;;7.60;99.90;;;;;;7377810;19;20022;-67
2024/02/29 10:50:31;;;;;;;21.80;15.32;;;7.60;99.90;;;;;;7371354;19;20363;-67
2024/02/29 10:53:52;;;;;;;20.10;13.95;;;7.60;99.90;;;;;;7372393;19;20014;-68
2024/02/29 10:56:25;;;;;;;;;;;7.70;99.90;;;;;;7370769;19;20018;-68
2024/02/29 10:59:10;;;;;;;22.55;13.90;;;7.70;99.90;;;;;;7375093;19;19933;-72
2024/02/29 11:01:38;;;;;;;22.08;15.10;;;7.70;99.90;;;;;;7372805;19;20467;-72
2024/02/29 11:04:07;;;;;;;21.33;14.73;;;7.80;99.90;;;;;;7371890;19;20014;-68
2024/02/29 11:06:45;;;;;;;20.58;14.25;;;7.90;99.90;;;;;;7373669;19;20039;-71
2024/02/29 11:09:16;;;;;;;21.40;15.05;;;7.90;99.90;;;;;;7376222;19;20462;-68
2024/02/29 11:11:45;;;;;;;19.55;15.25;;;8.00;99.90;;;;;;7368217;19;20023;-68
2024/02/29 11:14:15;;;;;;;20.48;14.80;;;8.10;99.90;;;;;;7370773;19;20847;-67
2024/02/29 11:16:48;;;;;;;21.52;16.05;;;8.20;99.90;;;;;;7360388;19;20018;-67
2024/02/29 11:19:17;;;;;;;19.33;14.10;;;8.20;99.90;;;;;;7363183;19;20623;-67
2024/02/29 11:21:47;;;;;;;20.17;14.00;;;8.20;99.90;;;;;;7361966;19;20551;-72
2024/02/29 11:24:22;;;;;;;18.48;13.50;;;8.20;99.90;;;;;;7370010;19;20025;-72
2024/02/29 11:26:55;;;;;;;18.27;13.88;;;8.20;99.90;;;;;;7367668;19;20483;-68
2024/02/29 11:29:24;;;;;;;19.20;13.95;;;8.30;99.90;;;;;;7372243;19;20021;-67
2024/02/29 11:31:57;;;;;;;20.25;13.57;;;8.30;99.90;;;;;;7368524;19;20022;-67
2024/02/29 11:34:24;;;;;;;16.85;12.90;;;8.20;99.90;;;;;;7369252;19;20026;-67
2024/02/29 11:36:52;;;;;;;19.63;14.40;;;8.20;99.90;;;;;;7368620;19;20593;-69
2024/02/29 11:39:23;;;;;;;21.02;14.55;;;8.20;99.90;;;;;;7371653;19;20092;-67
2024/02/29 11:42:00;;;;;;;20.23;13.77;;;8.20;99.90;;;;;;7369292;19;20019;-68
2024/02/29 11:44:27;;;;;;;19.58;13.75;;;8.20;99.90;;;;;;7362722;19;20017;-68
2024/02/29 11:46:54;;;;;;;21.20;13.70;;;8.20;99.90;;;;;;7367899;19;20489;-68
2024/02/29 11:49:24;;;;;;;22.08;14.30;;;8.20;99.90;;;;;;7366648;19;20679;-67
2024/02/29 11:51:55;;;;;;;17.83;13.90;;;8.20;99.90;;;;;;7363129;19;20375;-67
2024/02/29 11:54:23;;;;;;;15.90;12.98;;;8.20;99.90;;;;;;7365615;19;20011;-67
2024/02/29 11:56:54;;;;;;;18.48;13.25;;;8.20;99.90;;;;;;7360926;19;20041;-67
2024/02/29 11:59:22;;;;;;;17.77;13.45;;;8.20;99.90;;;;;;7367882;19;20018;-69
2024/02/29 12:01:49;;;;;;;21.58;14.23;;;8.30;99.90;;;;;;7359786;19;20014;-70
2024/02/29 12:04:16;;;;;;;18.25;14.38;;;8.20;99.90;;;;;;7361682;19;20029;-68
2024/02/29 12:06:46;;;;;;;19.38;14.43;;;8.20;99.90;;;;;;7364494;19;20931;-71
2024/02/29 12:09:14;;;;;;;19.70;13.98;;;8.10;99.90;;;;;;7368819;19;20022;-73
2024/02/29 12:11:43;;;;;;;20.20;16.15;;;8.10;99.90;;;;;;7370912;19;20074;-73
2024/02/29 12:14:10;;;;;;;20.95;16.35;;;8.00;99.90;;;;;;7363559;19;20486;-73
2024/02/29 12:16:42;;;;;;;21.55;15.55;;;8.00;99.90;;;;;;7369272;19;20022;-73
2024/02/29 12:19:09;;;;;;;;;;;7.90;99.90;;;;;;7365038;19;20034;-73
2024/02/29 12:21:35;;;;;;;23.25;14.85;;;7.90;99.90;;;;;;7366077;19;19926;-74
2024/02/29 12:24:02;;;;;;;29.10;16.50;;;7.80;99.90;;;;;;7368557;19;20029;-72
2024/02/29 12:26:29;;;;;;;24.27;16.70;;;7.80;99.90;;;;;;7368536;19;20022;-71
2024/02/29 12:28:55;;;;;;;24.25;17.10;;;7.80;99.90;;;;;;7364150;19;20011;-71
2024/02/29 12:31:23;;;;;;;26.17;17.83;;;7.80;99.90;;;;;;7367418;19;20025;-71
2024/02/29 12:33:49;;;;;;;27.77;17.95;;;7.80;99.90;;;;;;7364727;19;20018;-71
2024/02/29 12:36:17;;;;;;;28.75;18.30;;;7.80;99.90;;;;;;7368902;19;20040;-69
2024/02/29 12:38:46;;;;;;;27.05;18.58;;;7.90;99.90;;;;;;7363186;19;20011;-69
2024/02/29 12:41:13;;;;;;;28.92;19.17;;;7.80;99.90;;;;;;7363124;19;20018;-69
2024/02/29 12:43:53;;;;;;;27.98;18.92;;;7.90;99.90;;;;;;7365079;19;20814;-69